createdAt,value
2023-03-06T00:02:24.405Z,74.30
2023-03-06T00:05:46.963Z,74.40
2023-03-06T00:09:09.878Z,74.10
2023-03-06T00:12:32.064Z,73.90
2023-03-06T00:15:54.362Z,73.90
2023-03-06T00:19:16.690Z,73.80
2023-03-06T00:22:39.243Z,73.80
2023-03-06T00:26:01.314Z,73.80
2023-03-06T00:29:23.504Z,73.80
2023-03-06T00:32:45.666Z,73.80
2023-03-06T00:36:08.113Z,73.30
2023-03-06T00:39:30.321Z,73.50
2023-03-06T00:42:52.468Z,73.00
2023-03-06T00:46:15.097Z,73.10
2023-03-06T00:49:37.325Z,73.00
2023-03-06T00:52:59.405Z,73.00
2023-03-06T00:56:21.686Z,73.10
2023-03-06T00:59:43.854Z,73.00
2023-03-06T01:03:06.045Z,73.00
2023-03-06T01:06:28.376Z,73.00
2023-03-06T01:09:50.621Z,72.90
2023-03-06T01:13:12.816Z,72.80
2023-03-06T01:16:35.336Z,72.90
2023-03-06T01:19:57.601Z,72.70
2023-03-06T01:23:19.763Z,72.80
2023-03-06T01:26:42.662Z,72.80
2023-03-06T01:30:05.242Z,72.80
2023-03-06T01:33:27.454Z,72.80
2023-03-06T01:36:49.720Z,72.90
2023-03-06T01:40:12.530Z,73.00
2023-03-06T01:43:35.872Z,72.90
2023-03-06T01:46:58.001Z,72.60
2023-03-06T01:50:20.453Z,72.50
2023-03-06T01:53:43.620Z,72.50
2023-03-06T01:57:09.834Z,72.40
2023-03-06T02:00:31.944Z,72.40
2023-03-06T02:03:55.169Z,72.50
2023-03-06T02:07:19.712Z,72.60
2023-03-06T02:10:43.595Z,72.50
2023-03-06T02:14:05.750Z,72.60
2023-03-06T02:17:28.090Z,72.50
2023-03-06T02:20:52.133Z,73.20
2023-03-06T02:24:17.291Z,72.40
2023-03-06T02:27:39.608Z,72.40
2023-03-06T02:31:02.181Z,72.30
2023-03-06T02:34:24.362Z,72.30
2023-03-06T02:37:46.880Z,72.30
2023-03-06T02:41:10.539Z,72.40
2023-03-06T02:44:33.948Z,72.30
2023-03-06T02:47:56.057Z,72.20
2023-03-06T02:51:18.315Z,72.10
2023-03-06T02:54:40.833Z,72.10
2023-03-06T02:58:03.543Z,72.20
2023-03-06T03:01:26.158Z,72.10
2023-03-06T03:04:48.667Z,72.20
2023-03-06T03:08:12.566Z,72.10
2023-03-06T03:11:34.863Z,72.10
2023-03-06T03:14:57.405Z,72.10
2023-03-06T03:18:19.617Z,72.00
2023-03-06T03:21:42.987Z,72.00
2023-03-06T03:25:05.794Z,72.10
2023-03-06T03:28:28.050Z,71.90
2023-03-06T03:31:50.466Z,72.00
2023-03-06T03:35:12.898Z,71.90
2023-03-06T03:38:36.293Z,71.90
2023-03-06T03:41:58.688Z,71.90
2023-03-06T03:45:21.094Z,71.90
2023-03-06T03:48:43.958Z,71.90
2023-03-06T03:52:06.367Z,71.90
2023-03-06T03:55:30.310Z,71.90
2023-03-06T03:58:53.238Z,71.90
2023-03-06T04:02:16.093Z,71.90
2023-03-06T04:05:49.497Z,71.70
2023-03-06T04:09:12.347Z,71.90
2023-03-06T04:12:34.961Z,71.80
2023-03-06T04:15:57.338Z,72.10
2023-03-06T04:19:19.670Z,71.90
2023-03-06T04:22:42.252Z,71.80
2023-03-06T04:26:06.372Z,71.70
2023-03-06T04:29:28.689Z,71.70
2023-03-06T04:32:51.142Z,71.70
2023-03-06T04:36:30.229Z,71.70
2023-03-06T04:39:56.934Z,71.60
2023-03-06T04:43:19.201Z,71.60
2023-03-06T04:46:41.410Z,71.60
2023-03-06T04:50:04.429Z,71.40
2023-03-06T04:53:26.954Z,71.50
2023-03-06T04:56:49.067Z,71.40
2023-03-06T05:00:15.779Z,71.30
2023-03-06T05:03:38.147Z,71.40
2023-03-06T05:07:00.344Z,71.40
2023-03-06T05:10:22.670Z,71.40
2023-03-06T05:13:44.905Z,71.80
2023-03-06T05:17:07.034Z,71.70
2023-03-06T05:20:29.301Z,71.70
2023-03-06T05:23:51.465Z,71.80
2023-03-06T05:27:16.537Z,71.70
2023-03-06T05:30:39.715Z,71.90
2023-03-06T05:34:01.922Z,71.70
2023-03-06T05:37:24.370Z,71.70
2023-03-06T05:40:46.760Z,71.70
2023-03-06T05:44:08.921Z,71.50
2023-03-06T05:47:31.419Z,71.50
2023-03-06T05:50:57.433Z,71.50
2023-03-06T05:54:19.589Z,71.40
2023-03-06T05:57:41.763Z,71.50
2023-03-06T06:01:11.599Z,71.50
2023-03-06T06:04:33.707Z,71.60
2023-03-06T06:07:55.909Z,71.60
2023-03-06T06:11:18.535Z,71.60
2023-03-06T06:14:40.711Z,71.50
2023-03-06T06:18:02.918Z,71.60
2023-03-06T06:21:25.077Z,71.60
2023-03-06T06:24:47.271Z,71.50
2023-03-06T06:28:09.405Z,71.50
2023-03-06T06:31:31.624Z,71.50
2023-03-06T06:34:53.914Z,71.50
2023-03-06T06:38:16.316Z,71.60
2023-03-06T06:41:55.258Z,71.60
2023-03-06T06:45:20.594Z,71.70
2023-03-06T06:48:42.807Z,71.70
2023-03-06T06:52:05.687Z,71.60
2023-03-06T06:55:27.880Z,71.60
2023-03-06T06:58:52.187Z,70.60
2023-03-06T07:02:15.896Z,70.20
2023-03-06T07:05:38.373Z,71.30
2023-03-06T07:09:00.575Z,70.90
2023-03-06T07:12:22.833Z,71.00
2023-03-06T07:15:45.029Z,71.20
2023-03-06T07:19:07.743Z,72.70
2023-03-06T07:22:33.864Z,72.10
2023-03-06T07:26:04.097Z,72.30
2023-03-06T07:29:26.242Z,72.00
2023-03-06T07:32:48.369Z,72.20
2023-03-06T07:36:12.770Z,72.20
2023-03-06T07:39:35.909Z,72.00
2023-03-06T07:43:12.949Z,73.00
2023-03-06T07:46:44.092Z,71.60
2023-03-06T07:50:07.363Z,71.40
2023-03-06T07:53:29.994Z,71.40
2023-03-06T07:56:52.640Z,71.20
2023-03-06T08:00:15.925Z,71.50
2023-03-06T08:03:38.195Z,71.60
2023-03-06T08:07:00.465Z,72.10
2023-03-06T08:10:22.787Z,71.90
2023-03-06T08:13:45.191Z,71.90
2023-03-06T08:17:07.338Z,71.90
2023-03-06T08:20:29.671Z,71.90
2023-03-06T08:23:52.062Z,71.90
2023-03-06T08:27:14.159Z,72.10
2023-03-06T08:30:36.290Z,72.10
2023-03-06T08:33:59.888Z,72.60
2023-03-06T08:37:22.103Z,72.60
2023-03-06T08:40:44.273Z,73.80
2023-03-06T08:44:06.761Z,72.20
2023-03-06T08:47:28.941Z,72.40
2023-03-06T08:50:51.545Z,72.00
2023-03-06T08:54:13.737Z,72.70
2023-03-06T08:57:36.800Z,72.90
2023-03-06T09:00:59.345Z,73.40
2023-03-06T09:04:21.648Z,72.10
2023-03-06T09:07:43.910Z,71.70
2023-03-06T09:11:06.134Z,71.60
2023-03-06T09:14:28.304Z,71.00
2023-03-06T09:17:50.982Z,71.30
2023-03-06T09:21:13.193Z,71.00
2023-03-06T09:24:35.422Z,71.60
2023-03-06T09:28:10.400Z,75.70
2023-03-06T09:31:33.743Z,76.20
2023-03-06T09:34:55.922Z,76.70
2023-03-06T09:38:18.639Z,76.70
2023-03-06T09:41:41.617Z,76.90
2023-03-06T09:45:06.216Z,76.50
2023-03-06T09:48:41.787Z,76.70
2023-03-06T09:52:03.954Z,76.50
2023-03-06T09:55:27.302Z,76.30
2023-03-06T09:58:55.945Z,76.10
2023-03-06T10:02:22.441Z,74.60
2023-03-06T10:05:47.122Z,73.60
2023-03-06T10:09:12.402Z,74.30
2023-03-06T10:12:41.029Z,73.20
2023-03-06T10:16:26.337Z,75.00
2023-03-06T10:19:49.378Z,76.00
2023-03-06T10:23:20.833Z,75.00
2023-03-06T10:26:48.310Z,75.00
2023-03-06T10:30:13.710Z,75.00
2023-03-06T10:33:50.999Z,74.00
2023-03-06T10:37:18.623Z,74.90
2023-03-06T10:40:59.730Z,74.60
2023-03-06T10:44:23.441Z,74.60
2023-03-06T10:47:46.447Z,74.60
2023-03-06T10:51:19.573Z,74.30
2023-03-06T10:54:43.167Z,74.30
2023-03-06T10:58:34.777Z,74.30
2023-03-06T11:01:58.271Z,73.20
2023-03-06T11:05:21.075Z,72.60
2023-03-06T11:08:44.471Z,73.40
2023-03-06T11:12:16.061Z,73.30
2023-03-06T11:15:38.369Z,72.60
2023-03-06T11:19:02.468Z,73.70
2023-03-06T11:22:24.697Z,74.20
2023-03-06T11:26:02.719Z,74.30
2023-03-06T11:29:24.908Z,74.70
2023-03-06T11:32:59.104Z,74.40
2023-03-06T11:36:36.162Z,76.70
2023-03-06T11:40:01.045Z,76.10
2023-03-06T11:43:28.086Z,77.10
2023-03-06T11:46:59.173Z,78.20
2023-03-06T11:50:39.847Z,80.80
2023-03-06T11:54:02.438Z,80.50
2023-03-06T11:57:45.866Z,80.60
2023-03-06T12:01:22.484Z,78.70
2023-03-06T12:04:55.783Z,79.70
2023-03-06T12:08:18.571Z,80.00
2023-03-06T12:11:59.124Z,79.60
2023-03-06T12:15:39.580Z,79.20
2023-03-06T12:19:20.585Z,78.00
2023-03-06T12:22:57.510Z,72.30
2023-03-06T12:26:24.707Z,77.10
2023-03-06T12:29:46.821Z,76.40
2023-03-06T12:33:24.274Z,76.20
2023-03-06T12:36:52.394Z,76.20
2023-03-06T12:40:20.691Z,75.80
2023-03-06T12:43:51.249Z,74.40
2023-03-06T12:47:16.976Z,75.20
2023-03-06T12:50:39.895Z,75.00
2023-03-06T12:54:03.165Z,72.60
2023-03-06T12:57:25.737Z,72.90
2023-03-06T13:01:04.945Z,72.00
2023-03-06T13:04:45.732Z,71.40
2023-03-06T13:08:13.813Z,70.80
2023-03-06T13:11:54.834Z,70.50
2023-03-06T13:15:37.214Z,65.80
2023-03-06T13:19:04.129Z,67.40
2023-03-06T13:22:27.976Z,68.90
2023-03-06T13:25:50.298Z,68.90
2023-03-06T13:29:35.812Z,69.20
2023-03-06T13:32:57.911Z,69.40
2023-03-06T13:36:23.474Z,69.60
2023-03-06T13:39:54.596Z,69.50
2023-03-06T13:43:18.897Z,69.50
2023-03-06T13:46:41.044Z,70.20
2023-03-06T13:50:17.418Z,69.60
2023-03-06T13:53:44.475Z,69.60
2023-03-06T13:57:09.765Z,69.60
2023-03-06T14:00:47.149Z,69.50
2023-03-06T14:04:09.518Z,69.70
2023-03-06T14:07:42.570Z,69.60
2023-03-06T14:11:06.812Z,69.50
2023-03-06T14:14:34.702Z,69.40
2023-03-06T14:18:02.615Z,69.30
2023-03-06T14:21:30.973Z,69.30
2023-03-06T14:25:13.508Z,69.20
2023-03-06T14:28:36.045Z,69.20
2023-03-06T14:31:59.342Z,69.00
2023-03-06T14:35:26.061Z,68.90
2023-03-06T14:38:50.268Z,68.80
2023-03-06T14:42:27.745Z,68.80
2023-03-06T14:45:49.914Z,68.90
2023-03-06T14:49:13.902Z,68.70
2023-03-06T14:52:36.138Z,68.60
2023-03-06T14:56:00.390Z,69.10
2023-03-06T14:59:25.893Z,68.60
2023-03-06T15:02:48.854Z,68.40
2023-03-06T15:06:15.548Z,68.40
2023-03-06T15:09:38.553Z,68.50
2023-03-06T15:13:23.371Z,68.30
2023-03-06T15:16:45.646Z,68.30
2023-03-06T15:20:27.935Z,69.00
2023-03-06T15:23:51.124Z,68.50
2023-03-06T15:27:17.654Z,69.00
2023-03-06T15:30:39.859Z,69.00
2023-03-06T15:34:02.059Z,69.60
2023-03-06T15:37:26.688Z,70.20
2023-03-06T15:41:00.003Z,70.30
2023-03-06T15:44:22.187Z,70.60
2023-03-06T15:47:44.954Z,71.40
2023-03-06T15:51:07.339Z,71.60
2023-03-06T15:54:31.880Z,71.50
2023-03-06T15:57:59.830Z,71.30
2023-03-06T16:01:22.393Z,71.80
2023-03-06T16:04:45.090Z,71.90
2023-03-06T16:08:07.400Z,71.40
2023-03-06T16:11:38.644Z,71.10
2023-03-06T16:15:06.522Z,74.10
2023-03-06T16:18:28.727Z,71.70
2023-03-06T16:21:53.883Z,72.00
2023-03-06T16:25:17.049Z,71.90
2023-03-06T16:28:41.308Z,71.70
2023-03-06T16:35:27.264Z,70.00
2023-03-06T16:38:49.818Z,70.70
2023-03-06T16:42:12.013Z,70.80
2023-03-06T16:45:43.529Z,70.90
2023-03-06T16:49:05.967Z,70.80
2023-03-06T16:52:28.065Z,70.80
2023-03-06T16:55:50.451Z,70.70
2023-03-06T16:59:12.838Z,70.80
2023-03-06T17:02:35.053Z,70.80
2023-03-06T17:05:57.219Z,70.70
2023-03-06T17:09:19.426Z,70.80
2023-03-06T17:12:41.974Z,70.70
2023-03-06T17:16:04.587Z,73.40
2023-03-06T17:19:27.027Z,71.10
2023-03-06T17:22:29.185Z,70.90
2023-03-06T17:25:31.502Z,70.80
2023-03-06T17:28:34.085Z,71.20
2023-03-06T17:31:35.906Z,70.20
2023-03-06T17:34:37.984Z,69.70
2023-03-06T17:37:40.029Z,70.30
2023-03-06T17:40:42.259Z,70.60
2023-03-06T17:43:44.097Z,70.80
2023-03-06T17:46:46.420Z,70.80
2023-03-06T17:49:48.379Z,71.00
2023-03-06T17:52:50.586Z,71.10
2023-03-06T17:55:52.716Z,71.50
2023-03-06T17:58:55.340Z,71.00
2023-03-06T18:01:57.863Z,71.00
2023-03-06T18:04:59.870Z,70.60
2023-03-06T18:08:02.116Z,71.20
2023-03-06T18:11:05.189Z,71.20
2023-03-06T18:14:07.229Z,70.80
2023-03-06T18:17:09.102Z,71.80
2023-03-06T18:20:11.558Z,71.20
2023-03-06T18:23:13.498Z,71.60
2023-03-06T18:26:33.374Z,72.00
2023-03-06T18:29:35.332Z,70.70
2023-03-06T18:32:37.505Z,71.00
2023-03-06T18:35:40.710Z,67.60
2023-03-06T18:38:44.038Z,66.40
2023-03-06T18:41:46.167Z,66.40
2023-03-06T18:44:48.351Z,70.00
2023-03-06T18:47:50.553Z,70.70
2023-03-06T18:50:52.639Z,72.60
2023-03-06T18:53:58.259Z,75.50
2023-03-06T18:57:00.745Z,75.50
2023-03-06T19:00:03.187Z,74.70
2023-03-06T19:03:05.278Z,74.40
2023-03-06T19:06:08.624Z,74.80
2023-03-06T19:09:11.380Z,74.40
2023-03-06T19:12:13.421Z,74.50
2023-03-06T19:15:15.591Z,75.10
2023-03-06T19:18:18.080Z,75.00
2023-03-06T19:21:21.366Z,74.80
2023-03-06T19:24:23.281Z,73.90
2023-03-06T19:27:25.149Z,73.30
2023-03-06T19:30:27.009Z,73.70
2023-03-06T19:33:28.873Z,75.00
2023-03-06T19:36:33.925Z,75.30
2023-03-06T19:39:35.945Z,75.50
2023-03-06T19:42:37.927Z,72.40
2023-03-06T19:45:46.181Z,73.40
2023-03-06T19:48:48.065Z,73.90
2023-03-06T19:51:50.172Z,74.40
2023-03-06T19:54:52.558Z,75.50
2023-03-06T19:57:54.598Z,74.80
2023-03-06T20:01:02.992Z,74.60
2023-03-06T20:04:05.125Z,74.00
2023-03-06T20:07:07.295Z,73.50
2023-03-06T20:10:09.821Z,73.00
2023-03-06T20:13:30.434Z,74.10
2023-03-06T20:16:52.603Z,73.00
2023-03-06T20:20:14.775Z,73.40
2023-03-06T20:23:36.987Z,73.90
2023-03-06T20:26:59.512Z,73.90
2023-03-06T20:30:21.639Z,74.00
2023-03-06T20:33:45.053Z,73.80
2023-03-06T20:37:08.013Z,73.90
2023-03-06T20:40:30.469Z,73.80
2023-03-06T20:43:52.986Z,73.50
2023-03-06T20:47:15.543Z,73.30
2023-03-06T20:50:37.661Z,73.30
2023-03-06T20:54:01.072Z,72.60
2023-03-06T20:57:23.393Z,72.40
2023-03-06T21:00:45.588Z,72.20
2023-03-06T21:04:09.768Z,72.20
2023-03-06T21:07:31.954Z,71.60
2023-03-06T21:10:54.109Z,71.60
2023-03-06T21:14:16.434Z,72.10
2023-03-06T21:17:38.805Z,73.00
2023-03-06T21:21:04.769Z,73.40
2023-03-06T21:24:26.974Z,73.30
2023-03-06T21:27:49.262Z,73.30
2023-03-06T21:31:12.957Z,73.30
2023-03-06T21:34:35.153Z,73.30
2023-03-06T21:37:57.277Z,72.70
2023-03-06T21:41:21.137Z,72.80
2023-03-06T21:44:43.762Z,72.60
2023-03-06T21:48:06.068Z,72.80
2023-03-06T21:51:28.381Z,72.50
2023-03-06T21:54:50.566Z,71.90
2023-03-06T21:58:12.773Z,72.00
2023-03-06T22:01:35.022Z,72.00
2023-03-06T22:04:57.190Z,72.00
2023-03-06T22:08:28.169Z,71.90
2023-03-06T22:11:50.376Z,71.90
2023-03-06T22:15:12.663Z,71.60
2023-03-06T22:18:35.261Z,71.80
2023-03-06T22:21:57.525Z,72.10
2023-03-06T22:25:19.602Z,71.60
2023-03-06T22:28:42.153Z,71.60
2023-03-06T22:32:04.455Z,71.40
2023-03-06T22:35:26.794Z,71.30
2023-03-06T22:38:49.338Z,71.30
2023-03-06T22:42:11.568Z,71.10
2023-03-06T22:45:34.757Z,71.10
2023-03-06T22:48:57.637Z,71.10
2023-03-06T22:52:19.790Z,71.10
2023-03-06T22:55:41.921Z,71.10
2023-03-06T22:59:04.397Z,70.90
2023-03-06T23:02:31.700Z,70.80
2023-03-06T23:05:53.834Z,71.40
2023-03-06T23:09:19.862Z,70.60
2023-03-06T23:13:00.633Z,70.60
2023-03-06T23:16:41.656Z,70.60
2023-03-06T23:20:22.576Z,70.40
2023-03-06T23:24:03.394Z,70.40
2023-03-06T23:27:25.638Z,70.30
2023-03-06T23:30:47.847Z,70.30
2023-03-06T23:34:11.484Z,70.30
2023-03-06T23:37:33.633Z,70.30
2023-03-06T23:40:56.446Z,70.30
2023-03-06T23:44:18.801Z,70.30
2023-03-06T23:47:40.917Z,70.40
2023-03-06T23:51:10.276Z,70.30
2023-03-06T23:54:34.274Z,70.40
2023-03-06T23:57:56.590Z,70.00
